Airfield :
LOGIN :

Register | Disclaimer

   EN    FR    IT 

 










Legend :    VFR   Marginal VFR   IFR   Intensive IFR   Very Intensive IFR
Visi :
Ceiling :
>= 8 km
>= 3000ft
5 to 8 km
1000 to 3000 ft
1500m to 5 km
500 to 1000 ft
800 to 1500m
200 to 500 ft
< 800m
< 200 ft
Symbols :   Thunderstorms  Fog  Heavy snow  Heavy precipitations  Wind > 20 kt
SIGMETs :     Misc.  Thunderstorms  Icing  Turbulence  Mountain Waves  Volcanic Ashes






- Airport Elevation : 453 ft
- IATA code : SBK


LFRT - St Brieuc Armor

CURRENT METAR :
  • 091000Z AUTO 32015KT 280V350 9000 -RA SCT023/// BKN029/// BKN035/// ///TCU 09/06 Q1018

EXPIRED METARs :
  • 090930Z AUTO 31016G27KT 9999 -RA FEW021/// BKN030/// BKN038/// ///TCU 09/06 Q1017
  • 090900Z AUTO 31017G28KT 9999 -RA BKN028/// BKN035/// OVC045/// ///CB 09/07 Q1016
  • 090830Z AUTO 31019G29KT 9999 -RA SCT031/// BKN040/// BKN046/// ///TCU 09/06 Q1015
  • 090800Z AUTO 31021G32KT 5000 -RA BR SCT028 BKN035 BKN048 09/06 Q1014
  • 090730Z AUTO 31024KT 270V330 9999 -RA FEW029 SCT035 OVC049 09/06 Q1013

Expired Forecast.



MET'MAP, your aeronautical weather chart ! - Copyright ORBIFLY December 2007 - Disclaimer

ORBIFLY MET'MAP TEAM :

Programming & Development : Alexandra Zaïnal
Concept & original design : Baudouin d'Aumeries
Assistance for programming : Marc-Olivier Méhu
Technical & hardware support : Manuel Goepfert

Contact : metmap@orbifly.com




SOURCES & CREDITS :

   NOAA